sensor_id;sensor_type;location;lat;lon;timestamp;P1;P2;P0
72307;PMS5003;60257;42.638;23.376;2024-03-08T00:01:10;24.67;22.67;12.00
72307;PMS5003;60257;42.638;23.376;2024-03-08T00:03:10;30.67;29.67;14.00
72307;PMS5003;60257;42.638;23.376;2024-03-08T00:05:11;28.33;27.00;11.67
72307;PMS5003;60257;42.638;23.376;2024-03-08T00:07:12;31.67;28.00;13.00
72307;PMS5003;60257;42.638;23.376;2024-03-08T00:09:13;33.00;29.00;18.00
72307;PMS5003;60257;42.638;23.376;2024-03-08T00:11:14;32.33;29.33;15.00
72307;PMS5003;60257;42.638;23.376;2024-03-08T00:13:14;33.00;30.00;15.00
72307;PMS5003;60257;42.638;23.376;2024-03-08T00:15:15;29.33;28.00;14.33
72307;PMS5003;60257;42.638;23.376;2024-03-08T00:17:17;29.00;27.33;14.67
72307;PMS5003;60257;42.638;23.376;2024-03-08T00:19:17;30.00;27.33;13.00
72307;PMS5003;60257;42.638;23.376;2024-03-08T00:21:17;35.33;29.33;14.00
72307;PMS5003;60257;42.638;23.376;2024-03-08T00:23:18;36.33;30.67;16.33
72307;PMS5003;60257;42.638;23.376;2024-03-08T00:25:18;24.67;24.67;15.00
72307;PMS5003;60257;42.638;23.376;2024-03-08T00:27:18;26.33;25.00;16.33
72307;PMS5003;60257;42.638;23.376;2024-03-08T00:29:21;24.33;20.33;8.33
72307;PMS5003;60257;42.638;23.376;2024-03-08T00:31:22;44.33;37.00;18.00
72307;PMS5003;60257;42.638;23.376;2024-03-08T00:33:22;25.67;21.33;12.00
72307;PMS5003;60257;42.638;23.376;2024-03-08T00:35:23;24.67;24.00;8.33
72307;PMS5003;60257;42.638;23.376;2024-03-08T00:37:23;40.67;37.00;18.67
72307;PMS5003;60257;42.638;23.376;2024-03-08T00:39:23;34.33;33.00;15.33
72307;PMS5003;60257;42.638;23.376;2024-03-08T00:41:25;28.33;27.33;14.00
72307;PMS5003;60257;42.638;23.376;2024-03-08T00:43:26;37.67;33.67;21.00
72307;PMS5003;60257;42.638;23.376;2024-03-08T00:45:26;34.33;28.33;14.00
72307;PMS5003;60257;42.638;23.376;2024-03-08T00:47:27;44.00;36.33;18.00
72307;PMS5003;60257;42.638;23.376;2024-03-08T00:49:27;38.00;34.00;15.67
72307;PMS5003;60257;42.638;23.376;2024-03-08T00:51:27;33.00;32.00;18.33
72307;PMS5003;60257;42.638;23.376;2024-03-08T00:53:28;23.33;22.67;12.67
72307;PMS5003;60257;42.638;23.376;2024-03-08T00:55:28;37.00;33.00;18.33
72307;PMS5003;60257;42.638;23.376;2024-03-08T00:57:29;46.00;36.00;17.00
72307;PMS5003;60257;42.638;23.376;2024-03-08T00:59:30;33.67;30.00;15.33
72307;PMS5003;60257;42.638;23.376;2024-03-08T01:01:33;34.33;31.00;16.67
72307;PMS5003;60257;42.638;23.376;2024-03-08T01:03:33;34.00;30.67;13.33
72307;PMS5003;60257;42.638;23.376;2024-03-08T01:05:34;34.00;26.33;14.33
72307;PMS5003;60257;42.638;23.376;2024-03-08T01:07:35;25.67;25.33;12.33
72307;PMS5003;60257;42.638;23.376;2024-03-08T01:09:35;33.67;31.33;14.67
72307;PMS5003;60257;42.638;23.376;2024-03-08T01:11:36;18.67;18.33;7.67
72307;PMS5003;60257;42.638;23.376;2024-03-08T01:13:36;25.33;25.33;14.00
72307;PMS5003;60257;42.638;23.376;2024-03-08T01:15:36;26.67;22.67;11.00
72307;PMS5003;60257;42.638;23.376;2024-03-08T01:17:37;21.00;19.67;9.00
72307;PMS5003;60257;42.638;23.376;2024-03-08T01:19:37;21.33;20.67;12.00
72307;PMS5003;60257;42.638;23.376;2024-03-08T01:21:38;30.67;27.00;13.00
72307;PMS5003;60257;42.638;23.376;2024-03-08T01:23:39;23.67;21.33;9.33
72307;PMS5003;60257;42.638;23.376;2024-03-08T01:25:39;27.33;22.67;11.33
72307;PMS5003;60257;42.638;23.376;2024-03-08T01:27:41;21.00;20.00;12.33
72307;PMS5003;60257;42.638;23.376;2024-03-08T01:29:41;27.00;24.33;10.33
72307;PMS5003;60257;42.638;23.376;2024-03-08T01:31:42;20.67;17.00;10.33
72307;PMS5003;60257;42.638;23.376;2024-03-08T01:33:42;17.67;17.33;11.00
72307;PMS5003;60257;42.638;23.376;2024-03-08T01:35:43;13.33;12.67;8.33
72307;PMS5003;60257;42.638;23.376;2024-03-08T01:37:43;9.67;9.67;2.00
72307;PMS5003;60257;42.638;23.376;2024-03-08T01:39:43;14.00;13.33;7.33
72307;PMS5003;60257;42.638;23.376;2024-03-08T01:41:44;15.67;13.00;7.00
72307;PMS5003;60257;42.638;23.376;2024-03-08T01:43:44;12.00;12.00;8.00
72307;PMS5003;60257;42.638;23.376;2024-03-08T01:45:45;13.67;13.67;6.67
72307;PMS5003;60257;42.638;23.376;2024-03-08T01:47:46;16.67;14.33;8.67
72307;PMS5003;60257;42.638;23.376;2024-03-08T01:49:49;15.67;15.67;7.00
72307;PMS5003;60257;42.638;23.376;2024-03-08T01:51:50;11.00;9.00;4.00
72307;PMS5003;60257;42.638;23.376;2024-03-08T01:53:50;14.00;14.00;7.67
72307;PMS5003;60257;42.638;23.376;2024-03-08T01:55:52;9.00;9.00;7.00
72307;PMS5003;60257;42.638;23.376;2024-03-08T01:57:56;12.67;12.67;7.33
72307;PMS5003;60257;42.638;23.376;2024-03-08T01:59:57;11.67;11.67;6.67
72307;PMS5003;60257;42.638;23.376;2024-03-08T02:01:59;12.00;12.00;7.00
72307;PMS5003;60257;42.638;23.376;2024-03-08T02:04:02;6.00;6.00;3.00
72307;PMS5003;60257;42.638;23.376;2024-03-08T02:06:02;6.67;6.67;3.00
72307;PMS5003;60257;42.638;23.376;2024-03-08T02:08:02;7.33;7.33;3.33
72307;PMS5003;60257;42.638;23.376;2024-03-08T02:10:06;12.00;12.00;4.33
72307;PMS5003;60257;42.638;23.376;2024-03-08T02:12:07;3.67;3.67;3.00
72307;PMS5003;60257;42.638;23.376;2024-03-08T02:14:08;8.67;8.67;6.00
72307;PMS5003;60257;42.638;23.376;2024-03-08T02:16:09;6.00;6.00;2.00
72307;PMS5003;60257;42.638;23.376;2024-03-08T02:18:09;8.00;6.67;3.00
72307;PMS5003;60257;42.638;23.376;2024-03-08T02:20:10;4.00;4.00;2.00
72307;PMS5003;60257;42.638;23.376;2024-03-08T02:22:13;7.33;7.00;3.33
72307;PMS5003;60257;42.638;23.376;2024-03-08T02:24:14;7.00;7.00;4.00
72307;PMS5003;60257;42.638;23.376;2024-03-08T02:26:14;12.00;12.00;6.00
72307;PMS5003;60257;42.638;23.376;2024-03-08T02:28:15;8.00;8.00;6.00
72307;PMS5003;60257;42.638;23.376;2024-03-08T02:30:15;7.33;6.00;3.00
72307;PMS5003;60257;42.638;23.376;2024-03-08T02:32:17;9.33;8.67;6.00
72307;PMS5003;60257;42.638;23.376;2024-03-08T02:34:18;8.00;8.00;4.00
72307;PMS5003;60257;42.638;23.376;2024-03-08T02:36:18;8.00;8.00;4.00
72307;PMS5003;60257;42.638;23.376;2024-03-08T02:38:20;8.00;7.00;3.33
72307;PMS5003;60257;42.638;23.376;2024-03-08T02:40:22;7.33;7.33;3.00
72307;PMS5003;60257;42.638;23.376;2024-03-08T02:42:22;10.00;10.00;6.00
72307;PMS5003;60257;42.638;23.376;2024-03-08T02:44:23;8.00;7.00;4.00
72307;PMS5003;60257;42.638;23.376;2024-03-08T02:46:23;9.00;9.00;6.00
72307;PMS5003;60257;42.638;23.376;2024-03-08T02:48:24;15.33;13.00;6.67
72307;PMS5003;60257;42.638;23.376;2024-03-08T02:50:25;12.00;11.00;6.00
72307;PMS5003;60257;42.638;23.376;2024-03-08T02:52:26;10.33;10.33;4.00
72307;PMS5003;60257;42.638;23.376;2024-03-08T02:54:26;8.00;8.00;3.67
72307;PMS5003;60257;42.638;23.376;2024-03-08T02:56:26;7.67;7.67;3.00
72307;PMS5003;60257;42.638;23.376;2024-03-08T02:58:27;3.33;3.33;2.33
72307;PMS5003;60257;42.638;23.376;2024-03-08T03:00:27;12.00;12.00;4.00
72307;PMS5003;60257;42.638;23.376;2024-03-08T03:02:27;6.00;6.00;2.00
72307;PMS5003;60257;42.638;23.376;2024-03-08T03:04:28;7.00;6.00;3.67
72307;PMS5003;60257;42.638;23.376;2024-03-08T03:06:28;3.67;3.00;1.00
72307;PMS5003;60257;42.638;23.376;2024-03-08T03:08:28;8.67;8.00;4.00
72307;PMS5003;60257;42.638;23.376;2024-03-08T03:10:29;9.00;8.67;4.67
72307;PMS5003;60257;42.638;23.376;2024-03-08T03:12:29;6.33;6.33;3.00
72307;PMS5003;60257;42.638;23.376;2024-03-08T03:14:31;7.00;7.00;3.00
72307;PMS5003;60257;42.638;23.376;2024-03-08T03:16:31;7.33;7.33;3.00
72307;PMS5003;60257;42.638;23.376;2024-03-08T03:18:31;8.00;8.00;4.00
72307;PMS5003;60257;42.638;23.376;2024-03-08T03:20:32;8.00;7.00;4.00
72307;PMS5003;60257;42.638;23.376;2024-03-08T03:22:33;12.33;11.33;6.00
72307;PMS5003;60257;42.638;23.376;2024-03-08T03:24:34;7.33;7.33;4.00
72307;PMS5003;60257;42.638;23.376;2024-03-08T03:26:38;7.67;7.67;4.00
72307;PMS5003;60257;42.638;23.376;2024-03-08T03:28:39;8.00;8.00;4.67
72307;PMS5003;60257;42.638;23.376;2024-03-08T03:30:39;11.00;11.00;6.00
72307;PMS5003;60257;42.638;23.376;2024-03-08T03:32:40;10.33;8.67;6.67
72307;PMS5003;60257;42.638;23.376;2024-03-08T03:34:46;9.00;9.00;6.00
72307;PMS5003;60257;42.638;23.376;2024-03-08T03:36:47;7.00;7.00;6.00
72307;PMS5003;60257;42.638;23.376;2024-03-08T03:38:48;6.33;6.33;3.00
72307;PMS5003;60257;42.638;23.376;2024-03-08T03:40:49;6.67;6.67;3.67
72307;PMS5003;60257;42.638;23.376;2024-03-08T03:42:52;6.00;6.00;3.33
72307;PMS5003;60257;42.638;23.376;2024-03-08T03:44:52;6.33;6.33;3.00
72307;PMS5003;60257;42.638;23.376;2024-03-08T03:46:53;3.00;3.00;2.00
72307;PMS5003;60257;42.638;23.376;2024-03-08T03:48:54;4.00;4.00;2.00
72307;PMS5003;60257;42.638;23.376;2024-03-08T03:50:55;6.00;6.00;3.00
72307;PMS5003;60257;42.638;23.376;2024-03-08T03:52:55;5.33;5.33;2.00
72307;PMS5003;60257;42.638;23.376;2024-03-08T03:57:15;7.33;6.00;3.67
72307;PMS5003;60257;42.638;23.376;2024-03-08T03:59:15;3.33;3.33;2.00
72307;PMS5003;60257;42.638;23.376;2024-03-08T04:01:16;2.33;2.33;1.00
72307;PMS5003;60257;42.638;23.376;2024-03-08T04:03:17;6.00;6.00;3.00
72307;PMS5003;60257;42.638;23.376;2024-03-08T04:05:17;2.67;2.67;1.00
72307;PMS5003;60257;42.638;23.376;2024-03-08T04:07:17;2.33;2.33;1.00
72307;PMS5003;60257;42.638;23.376;2024-03-08T04:09:18;2.33;2.33;2.00
72307;PMS5003;60257;42.638;23.376;2024-03-08T04:11:19;4.33;4.33;2.33
72307;PMS5003;60257;42.638;23.376;2024-03-08T04:13:19;3.33;3.33;2.00
72307;PMS5003;60257;42.638;23.376;2024-03-08T04:15:20;4.00;3.00;1.33
72307;PMS5003;60257;42.638;23.376;2024-03-08T04:17:21;3.67;3.67;2.00
72307;PMS5003;60257;42.638;23.376;2024-03-08T04:19:22;3.67;3.67;2.67
72307;PMS5003;60257;42.638;23.376;2024-03-08T04:21:22;4.00;4.00;1.67
72307;PMS5003;60257;42.638;23.376;2024-03-08T04:23:22;4.00;4.00;3.00
72307;PMS5003;60257;42.638;23.376;2024-03-08T04:25:23;6.00;4.33;3.00
72307;PMS5003;60257;42.638;23.376;2024-03-08T04:27:23;7.00;6.00;3.00
72307;PMS5003;60257;42.638;23.376;2024-03-08T04:29:23;7.33;6.33;4.67
72307;PMS5003;60257;42.638;23.376;2024-03-08T04:31:24;7.00;7.00;4.67
72307;PMS5003;60257;42.638;23.376;2024-03-08T04:33:26;4.67;4.67;3.00
72307;PMS5003;60257;42.638;23.376;2024-03-08T04:35:27;11.33;8.00;4.67
72307;PMS5003;60257;42.638;23.376;2024-03-08T04:37:27;8.00;8.00;4.33
72307;PMS5003;60257;42.638;23.376;2024-03-08T04:39:29;7.00;7.00;3.00
72307;PMS5003;60257;42.638;23.376;2024-03-08T04:41:31;8.67;8.67;6.00
72307;PMS5003;60257;42.638;23.376;2024-03-08T04:43:34;9.00;8.67;6.67
72307;PMS5003;60257;42.638;23.376;2024-03-08T04:45:34;7.00;7.00;4.00
72307;PMS5003;60257;42.638;23.376;2024-03-08T04:47:35;9.00;8.00;6.00
72307;PMS5003;60257;42.638;23.376;2024-03-08T04:49:36;8.00;8.00;6.00
72307;PMS5003;60257;42.638;23.376;2024-03-08T04:51:37;8.67;8.67;6.33
72307;PMS5003;60257;42.638;23.376;2024-03-08T04:53:37;3.00;3.00;3.00
72307;PMS5003;60257;42.638;23.376;2024-03-08T04:55:38;6.00;6.00;3.33
72307;PMS5003;60257;42.638;23.376;2024-03-08T04:57:39;7.67;6.00;3.00
72307;PMS5003;60257;42.638;23.376;2024-03-08T04:59:39;4.00;4.00;3.00
72307;PMS5003;60257;42.638;23.376;2024-03-08T05:01:40;6.00;6.00;3.00
72307;PMS5003;60257;42.638;23.376;2024-03-08T05:03:40;7.00;7.00;3.00
72307;PMS5003;60257;42.638;23.376;2024-03-08T05:05:40;7.00;7.00;4.00
72307;PMS5003;60257;42.638;23.376;2024-03-08T05:07:41;12.00;12.00;8.67
72307;PMS5003;60257;42.638;23.376;2024-03-08T05:09:43;4.00;4.00;2.00
72307;PMS5003;60257;42.638;23.376;2024-03-08T05:11:51;7.00;7.00;3.00
72307;PMS5003;60257;42.638;23.376;2024-03-08T05:13:51;8.00;6.67;4.00
72307;PMS5003;60257;42.638;23.376;2024-03-08T05:15:51;7.00;7.00;4.00
72307;PMS5003;60257;42.638;23.376;2024-03-08T05:17:52;6.00;6.00;4.00
72307;PMS5003;60257;42.638;23.376;2024-03-08T05:19:52;7.00;6.00;4.00
72307;PMS5003;60257;42.638;23.376;2024-03-08T05:21:53;11.00;8.33;4.67
72307;PMS5003;60257;42.638;23.376;2024-03-08T05:23:53;5.67;5.67;3.00
72307;PMS5003;60257;42.638;23.376;2024-03-08T05:25:54;6.67;6.00;4.00
72307;PMS5003;60257;42.638;23.376;2024-03-08T05:27:54;11.67;9.67;5.33
72307;PMS5003;60257;42.638;23.376;2024-03-08T05:29:55;8.67;8.33;6.00
72307;PMS5003;60257;42.638;23.376;2024-03-08T05:31:56;14.33;12.00;7.00
72307;PMS5003;60257;42.638;23.376;2024-03-08T05:33:57;8.00;8.00;7.00
72307;PMS5003;60257;42.638;23.376;2024-03-08T05:35:58;13.00;12.00;7.67
72307;PMS5003;60257;42.638;23.376;2024-03-08T05:37:59;14.33;13.00;8.00
72307;PMS5003;60257;42.638;23.376;2024-03-08T05:39:59;17.00;16.00;8.33
72307;PMS5003;60257;42.638;23.376;2024-03-08T05:42:00;12.67;12.67;7.33
72307;PMS5003;60257;42.638;23.376;2024-03-08T05:44:00;14.00;14.00;8.00
72307;PMS5003;60257;42.638;23.376;2024-03-08T05:46:00;30.33;26.67;18.33
72307;PMS5003;60257;42.638;23.376;2024-03-08T05:48:01;15.33;12.00;4.00
72307;PMS5003;60257;42.638;23.376;2024-03-08T05:50:01;22.00;21.33;12.67
72307;PMS5003;60257;42.638;23.376;2024-03-08T05:52:01;18.67;18.67;11.00
72307;PMS5003;60257;42.638;23.376;2024-03-08T05:54:11;18.33;16.33;12.00
72307;PMS5003;60257;42.638;23.376;2024-03-08T05:56:12;22.33;22.33;13.67
72307;PMS5003;60257;42.638;23.376;2024-03-08T05:58:12;24.33;22.33;14.67
72307;PMS5003;60257;42.638;23.376;2024-03-08T06:00:13;24.67;21.00;12.00
72307;PMS5003;60257;42.638;23.376;2024-03-08T06:02:15;20.67;18.67;11.67
72307;PMS5003;60257;42.638;23.376;2024-03-08T06:04:19;16.00;12.00;6.00
72307;PMS5003;60257;42.638;23.376;2024-03-08T06:06:19;19.33;19.33;11.00
72307;PMS5003;60257;42.638;23.376;2024-03-08T06:08:21;21.00;19.00;13.00
72307;PMS5003;60257;42.638;23.376;2024-03-08T06:10:22;26.33;22.33;13.00
72307;PMS5003;60257;42.638;23.376;2024-03-08T06:12:22;18.67;18.67;11.33
72307;PMS5003;60257;42.638;23.376;2024-03-08T06:14:24;17.00;17.00;11.00
72307;PMS5003;60257;42.638;23.376;2024-03-08T06:16:24;19.33;19.00;12.67
72307;PMS5003;60257;42.638;23.376;2024-03-08T06:18:24;19.33;19.33;12.00
72307;PMS5003;60257;42.638;23.376;2024-03-08T06:20:25;15.33;15.33;10.33
72307;PMS5003;60257;42.638;23.376;2024-03-08T06:22:26;24.00;21.67;13.00
72307;PMS5003;60257;42.638;23.376;2024-03-08T06:24:26;18.00;17.00;9.00
72307;PMS5003;60257;42.638;23.376;2024-03-08T06:26:27;18.00;18.00;12.00
72307;PMS5003;60257;42.638;23.376;2024-03-08T06:28:28;26.00;22.33;13.00
72307;PMS5003;60257;42.638;23.376;2024-03-08T06:30:29;18.33;18.00;12.00
72307;PMS5003;60257;42.638;23.376;2024-03-08T06:32:29;22.00;22.00;13.00
72307;PMS5003;60257;42.638;23.376;2024-03-08T06:34:29;21.67;21.67;14.00
72307;PMS5003;60257;42.638;23.376;2024-03-08T06:36:34;18.67;18.67;12.00
72307;PMS5003;60257;42.638;23.376;2024-03-08T06:38:35;17.67;16.00;8.00
72307;PMS5003;60257;42.638;23.376;2024-03-08T06:40:35;22.33;18.67;11.00
72307;PMS5003;60257;42.638;23.376;2024-03-08T06:42:35;20.00;20.00;14.33
72307;PMS5003;60257;42.638;23.376;2024-03-08T06:44:36;27.00;21.67;12.00
72307;PMS5003;60257;42.638;23.376;2024-03-08T06:46:38;23.00;21.33;13.67
72307;PMS5003;60257;42.638;23.376;2024-03-08T06:48:38;22.00;21.00;11.00
72307;PMS5003;60257;42.638;23.376;2024-03-08T06:50:39;23.67;21.67;12.67
72307;PMS5003;60257;42.638;23.376;2024-03-08T06:52:39;44.25;39.00;25.50
72307;PMS5003;60257;42.638;23.376;2024-03-08T06:54:40;23.67;22.00;14.00
72307;PMS5003;60257;42.638;23.376;2024-03-08T06:56:40;22.00;18.33;12.00
72307;PMS5003;60257;42.638;23.376;2024-03-08T06:58:41;21.33;19.33;11.00
72307;PMS5003;60257;42.638;23.376;2024-03-08T07:00:42;24.00;23.00;12.00
72307;PMS5003;60257;42.638;23.376;2024-03-08T07:02:42;24.00;24.00;15.00
72307;PMS5003;60257;42.638;23.376;2024-03-08T07:04:45;23.00;20.00;13.00
72307;PMS5003;60257;42.638;23.376;2024-03-08T07:06:46;23.00;22.00;13.67
72307;PMS5003;60257;42.638;23.376;2024-03-08T07:08:47;23.33;19.00;12.00
72307;PMS5003;60257;42.638;23.376;2024-03-08T07:10:48;23.33;19.00;11.33
72307;PMS5003;60257;42.638;23.376;2024-03-08T07:12:49;23.00;23.00;14.00
72307;PMS5003;60257;42.638;23.376;2024-03-08T07:14:50;25.33;25.00;16.33
72307;PMS5003;60257;42.638;23.376;2024-03-08T07:16:50;21.33;20.67;12.00
72307;PMS5003;60257;42.638;23.376;2024-03-08T07:18:51;24.67;21.67;13.00
72307;PMS5003;60257;42.638;23.376;2024-03-08T07:20:52;22.67;22.67;13.00
72307;PMS5003;60257;42.638;23.376;2024-03-08T07:22:53;24.00;23.00;14.33
72307;PMS5003;60257;42.638;23.376;2024-03-08T07:24:54;21.00;21.00;12.00
72307;PMS5003;60257;42.638;23.376;2024-03-08T07:26:57;23.00;22.33;13.67
72307;PMS5003;60257;42.638;23.376;2024-03-08T07:28:58;21.67;18.33;12.00
72307;PMS5003;60257;42.638;23.376;2024-03-08T07:31:00;28.67;24.00;14.00
72307;PMS5003;60257;42.638;23.376;2024-03-08T07:33:27;21.00;20.33;12.67
72307;PMS5003;60257;42.638;23.376;2024-03-08T07:35:28;24.00;22.00;14.00
72307;PMS5003;60257;42.638;23.376;2024-03-08T07:37:29;18.33;15.00;8.33
72307;PMS5003;60257;42.638;23.376;2024-03-08T07:39:29;19.33;18.33;12.00
72307;PMS5003;60257;42.638;23.376;2024-03-08T07:41:29;17.67;15.00;9.00
72307;PMS5003;60257;42.638;23.376;2024-03-08T07:43:30;20.67;20.67;13.67
72307;PMS5003;60257;42.638;23.376;2024-03-08T07:45:30;18.67;18.00;10.33
72307;PMS5003;60257;42.638;23.376;2024-03-08T07:47:30;20.33;17.67;9.00
72307;PMS5003;60257;42.638;23.376;2024-03-08T07:49:32;11.67;11.67;7.33
72307;PMS5003;60257;42.638;23.376;2024-03-08T07:51:34;13.67;13.33;8.00
72307;PMS5003;60257;42.638;23.376;2024-03-08T07:53:34;11.67;11.67;7.00
72307;PMS5003;60257;42.638;23.376;2024-03-08T07:55:35;12.67;11.33;8.00
72307;PMS5003;60257;42.638;23.376;2024-03-08T07:57:39;11.67;9.33;4.00
72307;PMS5003;60257;42.638;23.376;2024-03-08T07:59:47;13.67;13.33;8.00
72307;PMS5003;60257;42.638;23.376;2024-03-08T08:01:47;15.33;13.00;8.00
72307;PMS5003;60257;42.638;23.376;2024-03-08T08:03:48;14.00;11.33;7.00
72307;PMS5003;60257;42.638;23.376;2024-03-08T08:05:48;19.67;17.67;10.00
72307;PMS5003;60257;42.638;23.376;2024-03-08T08:07:49;20.33;18.67;10.67
72307;PMS5003;60257;42.638;23.376;2024-03-08T08:09:49;16.00;16.00;11.33
72307;PMS5003;60257;42.638;23.376;2024-03-08T08:11:50;20.33;19.00;12.33
72307;PMS5003;60257;42.638;23.376;2024-03-08T08:13:50;18.00;17.00;10.00
72307;PMS5003;60257;42.638;23.376;2024-03-08T08:15:50;16.67;16.67;10.33
72307;PMS5003;60257;42.638;23.376;2024-03-08T08:17:51;23.00;19.33;13.00
72307;PMS5003;60257;42.638;23.376;2024-03-08T08:19:54;20.00;19.00;12.00
72307;PMS5003;60257;42.638;23.376;2024-03-08T08:21:54;19.00;18.00;12.00
72307;PMS5003;60257;42.638;23.376;2024-03-08T08:23:55;19.67;19.67;10.67
72307;PMS5003;60257;42.638;23.376;2024-03-08T08:25:56;20.00;20.00;11.33
72307;PMS5003;60257;42.638;23.376;2024-03-08T08:27:56;22.33;21.67;13.00
72307;PMS5003;60257;42.638;23.376;2024-03-08T08:29:56;17.00;16.00;10.00
72307;PMS5003;60257;42.638;23.376;2024-03-08T08:32:00;16.33;15.33;11.67
72307;PMS5003;60257;42.638;23.376;2024-03-08T08:34:00;21.00;20.00;13.00
72307;PMS5003;60257;42.638;23.376;2024-03-08T08:36:03;14.67;14.67;8.33
72307;PMS5003;60257;42.638;23.376;2024-03-08T08:38:06;20.33;20.33;12.33
72307;PMS5003;60257;42.638;23.376;2024-03-08T08:40:09;19.33;19.33;11.33
72307;PMS5003;60257;42.638;23.376;2024-03-08T08:42:14;17.00;17.00;10.00
72307;PMS5003;60257;42.638;23.376;2024-03-08T08:44:14;18.00;17.00;10.00
72307;PMS5003;60257;42.638;23.376;2024-03-08T08:46:18;19.00;17.67;11.33
72307;PMS5003;60257;42.638;23.376;2024-03-08T08:48:18;18.67;18.33;11.33
72307;PMS5003;60257;42.638;23.376;2024-03-08T08:50:19;18.67;15.00;9.00
72307;PMS5003;60257;42.638;23.376;2024-03-08T08:52:23;15.67;15.67;10.00
72307;PMS5003;60257;42.638;23.376;2024-03-08T08:54:23;13.67;13.67;9.33
72307;PMS5003;60257;42.638;23.376;2024-03-08T08:56:25;17.33;15.00;7.67
72307;PMS5003;60257;42.638;23.376;2024-03-08T08:58:25;21.33;18.67;10.00
72307;PMS5003;60257;42.638;23.376;2024-03-08T09:00:26;22.00;21.00;11.00
72307;PMS5003;60257;42.638;23.376;2024-03-08T09:02:27;16.67;14.33;9.33
72307;PMS5003;60257;42.638;23.376;2024-03-08T09:04:27;16.33;16.33;10.00
72307;PMS5003;60257;42.638;23.376;2024-03-08T09:06:29;14.67;14.67;8.00
72307;PMS5003;60257;42.638;23.376;2024-03-08T09:08:29;19.67;18.33;10.00
72307;PMS5003;60257;42.638;23.376;2024-03-08T09:10:30;16.33;16.33;13.00
72307;PMS5003;60257;42.638;23.376;2024-03-08T09:12:30;21.33;20.33;11.00
72307;PMS5003;60257;42.638;23.376;2024-03-08T09:14:32;21.33;20.67;13.33
72307;PMS5003;60257;42.638;23.376;2024-03-08T09:16:33;18.67;16.33;9.67
72307;PMS5003;60257;42.638;23.376;2024-03-08T09:18:33;14.00;13.00;7.00
72307;PMS5003;60257;42.638;23.376;2024-03-08T09:20:33;16.33;12.67;8.00
72307;PMS5003;60257;42.638;23.376;2024-03-08T09:22:34;13.33;13.33;9.00
72307;PMS5003;60257;42.638;23.376;2024-03-08T09:24:35;12.33;11.00;7.00
72307;PMS5003;60257;42.638;23.376;2024-03-08T09:26:35;15.33;14.00;8.00
72307;PMS5003;60257;42.638;23.376;2024-03-08T09:28:35;13.33;13.33;8.00
72307;PMS5003;60257;42.638;23.376;2024-03-08T09:30:36;17.33;15.00;8.67
72307;PMS5003;60257;42.638;23.376;2024-03-08T09:32:37;12.00;12.00;8.00
72307;PMS5003;60257;42.638;23.376;2024-03-08T09:34:38;16.00;15.00;9.67
72307;PMS5003;60257;42.638;23.376;2024-03-08T09:36:38;16.33;15.00;6.33
72307;PMS5003;60257;42.638;23.376;2024-03-08T09:38:38;15.67;15.67;10.00
72307;PMS5003;60257;42.638;23.376;2024-03-08T09:40:42;17.33;17.33;11.00
72307;PMS5003;60257;42.638;23.376;2024-03-08T09:42:42;17.67;17.67;12.00
72307;PMS5003;60257;42.638;23.376;2024-03-08T09:44:46;12.33;11.67;8.33
72307;PMS5003;60257;42.638;23.376;2024-03-08T09:46:48;11.00;10.00;7.00
72307;PMS5003;60257;42.638;23.376;2024-03-08T09:48:51;11.00;10.00;7.33
72307;PMS5003;60257;42.638;23.376;2024-03-08T09:50:52;8.33;6.33;4.00
72307;PMS5003;60257;42.638;23.376;2024-03-08T09:52:54;10.67;9.00;4.00
72307;PMS5003;60257;42.638;23.376;2024-03-08T09:54:57;9.67;9.67;6.00
72307;PMS5003;60257;42.638;23.376;2024-03-08T09:56:57;10.33;9.33;5.33
72307;PMS5003;60257;42.638;23.376;2024-03-08T09:58:58;9.00;9.00;5.67
72307;PMS5003;60257;42.638;23.376;2024-03-08T10:01:04;17.00;14.33;10.00
72307;PMS5003;60257;42.638;23.376;2024-03-08T10:03:04;11.00;11.00;8.00
72307;PMS5003;60257;42.638;23.376;2024-03-08T10:05:05;12.67;11.67;6.67
72307;PMS5003;60257;42.638;23.376;2024-03-08T10:07:07;12.00;12.00;8.00
72307;PMS5003;60257;42.638;23.376;2024-03-08T10:09:07;11.67;11.00;8.67
72307;PMS5003;60257;42.638;23.376;2024-03-08T10:11:10;10.00;9.33;6.00
72307;PMS5003;60257;42.638;23.376;2024-03-08T10:13:11;4.00;4.00;4.00
72307;PMS5003;60257;42.638;23.376;2024-03-08T10:15:13;10.33;10.00;6.00
72307;PMS5003;60257;42.638;23.376;2024-03-08T10:17:16;11.33;11.33;7.33
72307;PMS5003;60257;42.638;23.376;2024-03-08T10:19:17;11.67;11.67;8.00
72307;PMS5003;60257;42.638;23.376;2024-03-08T10:21:17;8.67;8.67;5.00
72307;PMS5003;60257;42.638;23.376;2024-03-08T10:23:19;10.00;10.00;5.67
72307;PMS5003;60257;42.638;23.376;2024-03-08T10:25:19;9.00;9.00;5.00
72307;PMS5003;60257;42.638;23.376;2024-03-08T10:27:20;11.00;11.00;8.00
72307;PMS5003;60257;42.638;23.376;2024-03-08T10:29:20;9.33;9.33;8.00
72307;PMS5003;60257;42.638;23.376;2024-03-08T10:31:20;13.00;12.00;6.00
72307;PMS5003;60257;42.638;23.376;2024-03-08T10:33:21;10.00;10.00;4.00
72307;PMS5003;60257;42.638;23.376;2024-03-08T10:35:21;11.33;11.33;8.00
72307;PMS5003;60257;42.638;23.376;2024-03-08T10:37:22;12.67;12.67;10.33
72307;PMS5003;60257;42.638;23.376;2024-03-08T10:39:24;11.00;10.33;7.67
72307;PMS5003;60257;42.638;23.376;2024-03-08T10:41:25;10.00;10.00;6.00
72307;PMS5003;60257;42.638;23.376;2024-03-08T10:43:34;9.00;9.00;6.00
72307;PMS5003;60257;42.638;23.376;2024-03-08T10:46:06;10.00;10.00;5.67
72307;PMS5003;60257;42.638;23.376;2024-03-08T10:48:14;11.00;11.00;6.00
72307;PMS5003;60257;42.638;23.376;2024-03-08T10:50:28;14.33;12.67;8.67
72307;PMS5003;60257;42.638;23.376;2024-03-08T10:52:30;10.00;10.00;8.00
72307;PMS5003;60257;42.638;23.376;2024-03-08T10:54:31;10.00;9.00;5.33
72307;PMS5003;60257;42.638;23.376;2024-03-08T10:56:34;9.00;9.00;6.00
72307;PMS5003;60257;42.638;23.376;2024-03-08T10:58:35;16.00;11.67;8.00
72307;PMS5003;60257;42.638;23.376;2024-03-08T11:00:36;12.00;12.00;7.33
72307;PMS5003;60257;42.638;23.376;2024-03-08T11:02:38;10.33;9.00;6.00
72307;PMS5003;60257;42.638;23.376;2024-03-08T11:04:38;11.33;10.00;5.67
72307;PMS5003;60257;42.638;23.376;2024-03-08T11:08:39;5.00;5.00;2.67
72307;PMS5003;60257;42.638;23.376;2024-03-08T11:10:49;6.67;6.67;3.67
72307;PMS5003;60257;42.638;23.376;2024-03-08T11:12:55;12.00;11.00;8.00
72307;PMS5003;60257;42.638;23.376;2024-03-08T11:14:56;9.67;9.00;5.33
72307;PMS5003;60257;42.638;23.376;2024-03-08T11:17:00;13.33;12.33;6.00
72307;PMS5003;60257;42.638;23.376;2024-03-08T11:21:11;7.33;7.33;5.67
72307;PMS5003;60257;42.638;23.376;2024-03-08T11:23:14;10.00;9.00;5.00
72307;PMS5003;60257;42.638;23.376;2024-03-08T11:27:39;9.00;9.00;6.00
72307;PMS5003;60257;42.638;23.376;2024-03-08T11:29:59;9.00;9.00;5.00
72307;PMS5003;60257;42.638;23.376;2024-03-08T11:32:12;8.33;6.00;4.00